CPA5 weather

Tarten Heliport
Toronto, Ontario, Canada

Public forecast

Using degrees Celsius for public forecast. Weather courtesy of forecast.io.

Closest aviation weather report (METAR) to Tarten Heliport

Closest report is Lester B. Pearson International Airport, 1.8 nm (3.4 km) NE. Retrieved 2020/07/12 09:00 UTC (15 minutes ago):

CYYZ 120900Z 29008KT 15SM FEW090 19/16 A2968 RMK AC1 AC TR SLP050 DENSITY ALT 1500FT

Closest aviation forecast (TAF) to Tarten Heliport

Closest forecast is Lester B. Pearson International Airport, 1.8 nm (3.4 km) NE. Retrieved 2020/07/12 09:41 UTC (0 seconds ago):

TAF CYYZ 120838Z 1209/1312 30010KT P6SM SKC FM121100 30010KT P6SM SCT020 TEMPO 1211/1212 BKN020 FM121200 30012KT P6SM BKN030 FM121700 32012KT P6SM BKN030 TEMPO 1217/1223 P6SM -SHRA FM122300 35012KT P6SM BKN030 FM130600 33008KT P6SM SCT040 RMK NXT FCST BY 121200Z